Tropical Cyclones
[Index]
Main Index Home Page Stock Weather Photos Extreme Storms Discussion Storm News and Storm Chasing Reports Tropical Cyclones / Hurricanes / Typhoons Weather Data and Links Wild Fires / Bushfires Weather Observation Techniques Weather Picture Catalogue Tornado Pictures and Reports Stock Video Footage and DVDs for sale
Season 1975-1976 Tropical Cyclone BARBARA Track Map
Season 1975-1976 Summaries: [BoM-AU] [JTWC-AU] [JTWC-SIO] [JTWC-SPAC] [JTWC-SH]
<<- Previous TC | JTWC 1975-1976 Season | Next TC ->>

click for intensity scale information  Lat/long Grid: Show Hide

 Date Labels: Show Hide

Joint Typhoon Warning Centre Cyclone Data

Name: BARBARA
Number: 910 / 7606

06 Dec 1975 06:00 UTC to 17 Dec 1975 06:00 UTC

    date/time    lat    long     hPa   cat  kts
1975-12-06 06   12.6    66.0                              
1975-12-06 12   12.7    65.2                              
1975-12-06 18   12.8    64.3                              
1975-12-07 00   12.9    63.4                              
1975-12-07 06   13.0    62.5                              
1975-12-07 12   13.3    61.5                              
1975-12-07 18   13.8    60.4                              
1975-12-08 00   14.2    59.4                              
1975-12-08 06   14.5    58.3                              
1975-12-08 12   14.7    57.3                              
1975-12-08 18   14.7    56.3                              
1975-12-09 00   14.7    55.4                              
1975-12-09 06   14.6    54.5                              
1975-12-09 12   14.2    53.7                              
1975-12-09 18   13.7    53.1                              
1975-12-10 00   13.5    52.5                              
1975-12-10 06   13.2    52.0                              
1975-12-10 12   12.9    51.5                              
1975-12-10 18   12.6    51.0                              
1975-12-11 00   12.4    50.6                              
1975-12-11 06   12.2    50.3                              
1975-12-11 12   12.1    50.2                              
1975-12-11 18   12.1    50.1                              
1975-12-12 00   12.0    50.0                              
1975-12-12 06   12.1    49.9                              
1975-12-12 12   12.5    49.5                              
1975-12-12 18   13.0    49.0                              
1975-12-13 00   13.5    48.6                              
1975-12-13 06   14.0    48.1                              
1975-12-13 12   14.7    48.1                              
1975-12-13 18   15.4    48.6                              
1975-12-14 00   16.0    48.9                              
1975-12-14 06   16.4    49.3                              
1975-12-14 12   16.6    49.6                              
1975-12-14 18   16.8    50.0                              
1975-12-15 00   17.1    50.3                              
1975-12-15 06   17.5    50.5                              
1975-12-15 12   17.8    50.9                              
1975-12-15 18   18.1    51.2                              
1975-12-16 00   18.5    51.4                              
1975-12-16 06   19.1    51.6                              
1975-12-16 12   19.7    51.9                              
1975-12-16 18   20.4    52.2                              
1975-12-17 00   21.3    52.4                              
1975-12-17 06   22.3    52.4                              
Winds are 1-min average.

Tropical cyclone tracks developed by Michael Bath using data from the Joint Typhoon Warning Centre Best Tracks and Google Maps.


[Australian Severe Weather index] [Copyright Notice] [Email Contacts] [Search This Site] [Privacy Policy]
Document: tropical_cyclone_barbara.htm Updated: 18 September 2016